Time;durP1;ratioP1;P1;durP2;ratioP2;P2;SDS_P1;SDS_P2;PMS_P1;PMS_P2;Temp;Humidity;BMP_temperature;BMP_pressure;BME280_temperature;BME280_humidity;BME280_pressure;Samples;Min_cycle;Max_cycle;Signal;HPM_P1;HPM_P2
2022/05/16 00:00:38;;;;;;;8.77;4.40;;;;;;;23.69;49.74;100732.41;5112072;28;20098;-77
2022/05/16 00:03:07;;;;;;;6.20;4.20;;;;;;;23.67;49.41;100721.66;5096106;28;20052;-76
2022/05/16 00:05:33;;;;;;;5.38;3.83;;;;;;;23.67;49.43;100727.25;5095388;28;20423;-76
2022/05/16 00:07:59;;;;;;;7.15;4.07;;;;;;;23.61;49.77;100723.28;5077962;28;20043;-76
2022/05/16 00:10:25;;;;;;;6.32;4.00;;;;;;;23.57;49.69;100725.22;5095991;28;20073;-76
2022/05/16 00:12:52;;;;;;;9.63;5.22;;;;;;;23.51;49.63;100722.06;5096777;28;20032;-76
2022/05/16 00:15:20;;;;;;;7.78;4.90;;;;;;;23.60;48.91;100721.69;5095821;28;20138;-76
2022/05/16 00:17:46;;;;;;;11.82;6.18;;;;;;;23.50;49.21;100717.69;5096813;28;20032;-76
2022/05/16 00:20:12;;;;;;;14.93;6.63;;;;;;;23.38;49.85;100714.53;5095853;28;20137;-76
2022/05/16 00:22:38;;;;;;;12.02;6.07;;;;;;;23.43;49.60;100708.56;5097411;28;20036;-76
2022/05/16 00:25:07;;;;;;;15.57;6.38;;;;;;;23.31;49.68;100720.09;5108268;28;20092;-76
2022/05/16 00:27:34;;;;;;;10.20;5.95;;;;;;;23.42;49.03;100715.31;5100393;28;20032;-76
2022/05/16 00:30:09;;;;;;;12.20;6.20;;;;;;;23.43;49.32;100714.13;5095791;28;20035;-77
2022/05/16 00:32:35;;;;;;;10.98;4.93;;;;;;;23.31;49.44;100714.53;5087105;28;20066;-76
2022/05/16 00:35:01;;;;;;;10.38;4.18;;;;;;;23.34;49.19;100717.31;5102961;28;20059;-76
2022/05/16 00:37:26;;;;;;;10.85;4.65;;;;;;;23.19;49.78;100719.31;5115144;28;20057;-76
2022/05/16 00:39:52;;;;;;;8.68;4.53;;;;;;;23.04;50.23;100716.94;5115111;28;20036;-77
2022/05/16 00:42:19;;;;;;;17.70;6.28;;;;;;;23.33;49.28;100720.50;5116174;28;20016;-77
2022/05/16 00:44:45;;;;;;;15.07;7.63;;;;;;;23.47;48.92;100717.69;5091150;28;20063;-77
2022/05/16 00:47:11;;;;;;;14.20;6.93;;;;;;;23.51;48.57;100718.50;5095713;28;20031;-77
2022/05/16 00:49:40;;;;;;;22.10;7.57;;;;;;;23.23;49.61;100714.53;5094644;28;20035;-77
2022/05/16 00:52:16;;;;;;;14.38;6.80;;;;;;;22.91;50.24;100719.34;5117500;28;20388;-77
2022/05/16 00:54:55;;;;;;;12.77;6.20;;;;;;;22.95;49.72;100717.34;5115549;28;20031;-77
2022/05/16 00:57:45;;;;;;;11.90;6.25;;;;;;;22.98;49.74;100722.13;5105190;28;20031;-77
2022/05/16 01:00:26;;;;;;;20.02;6.22;;;;;;;23.23;48.56;100719.31;5095679;28;20019;-77
2022/05/16 01:05:57;;;;;;;16.92;7.97;;;;;;;23.07;48.68;100705.00;5118158;28;20088;-77
2022/05/16 01:08:28;;;;;;;25.25;7.20;;;;;;;23.07;48.54;100705.00;5098840;28;20036;-77
2022/05/16 01:10:58;;;;;;;22.13;8.95;;;;;;;22.97;48.77;100717.72;5106788;28;20033;-77
2022/05/16 01:13:29;;;;;;;23.60;7.78;;;;;;;22.73;49.82;100710.91;5115173;28;20038;-77
2022/05/16 01:15:56;;;;;;;20.15;7.88;;;;;;;22.81;49.47;100714.50;5096400;28;20032;-77
2022/05/16 01:18:24;;;;;;;25.95;8.27;;;;;;;22.84;49.21;100708.16;5096013;28;20035;-77
2022/05/16 01:21:33;;;;;;;26.17;8.35;;;;;;;23.02;48.85;100697.03;5106641;28;20093;-77
2022/05/16 01:24:09;;;;;;;25.42;8.32;;;;;;;22.93;49.52;100705.81;5101048;28;20066;-80
2022/05/16 01:26:36;;;;;;;22.17;7.80;;;;;;;22.85;49.63;100705.00;5104995;28;20073;-76
2022/05/16 01:29:03;;;;;;;24.27;8.13;;;;;;;22.80;49.61;100697.00;5116363;28;20050;-80
2022/05/16 01:31:30;;;;;;;28.00;7.18;;;;;;;22.95;49.33;100690.28;5100458;28;20561;-84
2022/05/16 01:33:56;;;;;;;21.85;8.30;;;;;;;23.08;49.04;100687.88;5095676;28;20436;-77
2022/05/16 01:36:21;;;;;;;18.08;7.53;;;;;;;23.13;49.08;100687.50;5106607;28;20031;-77
2022/05/16 01:38:47;;;;;;;19.52;8.00;;;;;;;23.25;49.06;100687.06;5115021;28;20028;-77
2022/05/16 01:41:16;;;;;;;20.75;8.60;;;;;;;23.10;49.31;100679.13;5115427;28;20031;-77
2022/05/16 01:43:46;;;;;;;21.88;8.27;;;;;;;23.13;49.68;100681.91;5116059;28;20489;-77
2022/05/16 01:46:15;;;;;;;25.02;8.27;;;;;;;23.10;49.32;100677.13;5100282;28;20074;-77
2022/05/16 01:48:41;;;;;;;18.27;7.43;;;;;;;23.22;49.23;100676.72;5107299;28;20416;-78
2022/05/16 01:51:09;;;;;;;20.88;8.48;;;;;;;23.18;49.15;100673.13;5113570;28;20028;-78
2022/05/16 01:53:36;;;;;;;19.23;7.95;;;;;;;23.39;48.63;100672.31;5114988;28;20027;-77
2022/05/16 01:56:01;;;;;;;20.52;7.47;;;;;;;23.39;48.43;100666.72;5113649;28;20049;-77
2022/05/16 01:58:27;;;;;;;19.83;8.30;;;;;;;23.33;48.58;100665.53;5097389;28;20388;-77
2022/05/16 02:00:53;;;;;;;18.10;7.70;;;;;;;23.12;49.43;100669.16;5104891;28;20027;-77
2022/05/16 02:03:19;;;;;;;21.67;8.35;;;;;;;23.08;49.33;100660.00;5110433;28;20024;-78
2022/05/16 02:05:45;;;;;;;16.55;7.15;;;;;;;23.05;49.21;100657.22;5097337;28;20020;-77
2022/05/16 02:08:13;;;;;;;19.90;7.32;;;;;;;22.77;50.17;100652.44;5105705;28;20027;-77
2022/05/16 02:10:39;;;;;;;21.42;8.40;;;;;;;22.94;49.71;100651.66;5116412;28;20023;-76
2022/05/16 02:13:06;;;;;;;18.42;7.57;;;;;;;22.99;49.28;100654.06;5109219;28;20020;-82
2022/05/16 02:15:34;;;;;;;12.98;6.68;;;;;;;22.90;49.59;100646.09;5092958;28;20073;-77
2022/05/16 02:18:00;;;;;;;12.48;6.93;;;;;;;23.01;49.23;100645.28;5076522;28;20470;-92
2022/05/16 02:20:27;;;;;;;15.45;6.95;;;;;;;22.53;50.73;100649.25;5098616;28;20034;-76
2022/05/16 02:25:41;;;;;;;19.65;7.57;;;;;;;22.52;50.57;100630.13;5113863;28;20109;-77
2022/05/16 02:28:14;;;;;;;16.08;7.80;;;;;;;22.63;50.12;100628.97;5113959;28;20024;-77
2022/05/16 02:30:44;;;;;;;16.27;7.93;;;;;;;22.45;50.49;100625.41;5105755;28;20035;-77
2022/05/16 02:33:11;;;;;;;29.20;8.48;;;;;;;23.00;48.72;100616.63;5111059;28;20103;-77
2022/05/16 02:35:37;;;;;;;24.10;8.98;;;;;;;22.77;49.22;100617.03;5090363;28;20028;-78
2022/05/16 02:38:05;;;;;;;26.00;8.93;;;;;;;22.94;49.10;100609.88;5092559;28;20056;-77
2022/05/16 02:40:32;;;;;;;17.27;8.15;;;;;;;22.99;48.56;100609.47;5092874;28;20024;-77
2022/05/16 02:42:58;;;;;;;20.13;9.18;;;;;;;23.03;48.80;100601.09;5098224;28;20639;-77
2022/05/16 02:45:25;;;;;;;23.42;9.13;;;;;;;23.08;48.32;100590.34;5107361;28;20107;-76
2022/05/16 02:47:51;;;;;;;20.90;9.88;;;;;;;23.10;48.19;100592.72;5112880;28;20117;-77
2022/05/16 02:50:19;;;;;;;21.00;10.55;;;;;;;23.09;48.28;100585.56;5109671;28;20031;-76
2022/05/16 02:52:44;;;;;;;25.75;8.93;;;;;;;22.86;48.44;100588.78;5092827;28;20035;-76
2022/05/16 02:55:10;;;;;;;24.52;9.82;;;;;;;22.95;48.64;100587.19;5096138;28;20027;-77
2022/05/16 02:57:36;;;;;;;26.92;9.38;;;;;;;23.03;48.28;100587.97;5089531;28;20111;-77
2022/05/16 03:00:05;;;;;;;15.65;8.32;;;;;;;22.99;48.03;100578.84;5106850;28;20055;-77
2022/05/16 03:02:30;;;;;;;21.55;8.63;;;;;;;23.03;47.87;100576.03;5097719;28;20031;-77
2022/05/16 03:04:56;;;;;;;22.30;9.35;;;;;;;22.98;48.21;100577.25;5097175;28;20024;-76
2022/05/16 03:07:22;;;;;;;16.02;9.32;;;;;;;23.07;47.88;100571.25;5105023;28;20067;-76
2022/05/16 03:09:48;;;;;;;18.38;8.95;;;;;;;23.17;47.45;100574.00;5118404;28;20022;-77
2022/05/16 03:12:16;;;;;;;22.05;9.27;;;;;;;23.13;47.55;100578.81;5119285;28;20063;-76
2022/05/16 03:14:42;;;;;;;21.90;10.05;;;;;;;22.97;48.16;100570.88;5115222;28;20028;-77
2022/05/16 03:17:07;;;;;;;22.35;10.20;;;;;;;23.17;47.62;100565.63;5096742;28;20089;-76
2022/05/16 03:19:35;;;;;;;22.75;9.88;;;;;;;22.93;48.05;100561.72;5096409;28;20032;-77
2022/05/16 03:22:05;;;;;;;20.50;8.77;;;;;;;23.05;47.88;100566.09;5114882;28;20417;-77
2022/05/16 03:24:31;;;;;;;25.17;10.32;;;;;;;23.11;47.59;100561.66;5117232;28;20024;-77
2022/05/16 03:26:58;;;;;;;24.65;11.07;;;;;;;23.04;47.56;100556.09;5098699;28;20043;-76
2022/05/16 03:29:24;;;;;;;22.30;9.80;;;;;;;22.80;48.46;100556.94;5096236;28;20476;-76
2022/05/16 03:31:50;;;;;;;25.05;9.35;;;;;;;22.85;48.45;100551.78;5110106;28;20035;-76
2022/05/16 03:34:15;;;;;;;24.25;10.05;;;;;;;23.00;47.94;100555.34;5116962;28;20028;-76
2022/05/16 03:36:41;;;;;;;21.17;10.45;;;;;;;22.94;47.83;100556.94;5116678;28;20058;-76
2022/05/16 03:41:54;;;;;;;21.77;11.32;;;;;;;23.09;47.79;100541.78;5096400;28;20145;-76
2022/05/16 03:44:21;;;;;;;20.95;11.00;;;;;;;23.24;47.16;100542.53;5097641;28;20023;-76
2022/05/16 03:46:47;;;;;;;21.67;11.00;;;;;;;23.11;47.88;100530.22;5115910;28;20019;-77
2022/05/16 03:49:13;;;;;;;20.33;11.13;;;;;;;23.05;47.49;100526.25;5117039;28;20133;-76
2022/05/16 03:51:39;;;;;;;30.70;11.27;;;;;;;23.02;47.78;100525.06;5116570;28;20080;-76
2022/05/16 03:54:06;;;;;;;27.23;11.80;;;;;;;22.98;48.03;100519.53;5116612;28;20030;-76
2022/05/16 03:56:32;;;;;;;24.30;11.85;;;;;;;23.02;47.71;100518.72;5115994;28;20035;-76
2022/05/16 03:58:58;;;;;;;27.00;11.15;;;;;;;22.71;48.76;100521.94;5116198;28;20492;-77
2022/05/16 04:01:25;;;;;;;28.02;12.25;;;;;;;22.78;48.56;100521.13;5104199;28;20032;-76
2022/05/16 04:03:52;;;;;;;39.70;13.30;;;;;;;22.81;48.31;100517.53;5111594;28;20027;-77
2022/05/16 04:06:18;;;;;;;30.83;12.57;;;;;;;22.70;48.53;100517.56;5115642;28;20077;-76
2022/05/16 04:08:45;;;;;;;30.98;12.70;;;;;;;22.55;48.83;100523.56;5113765;28;20115;-77
2022/05/16 04:11:14;;;;;;;35.00;13.05;;;;;;;22.83;48.07;100517.16;5113755;28;20027;-76
2022/05/16 04:13:41;;;;;;;28.08;11.43;;;;;;;22.84;48.11;100515.97;5115415;28;20040;-77
2022/05/16 04:16:07;;;;;;;33.22;13.23;;;;;;;22.61;48.85;100514.41;5115490;28;20439;-76
2022/05/16 04:18:34;;;;;;;26.90;12.35;;;;;;;22.75;48.44;100513.59;5115471;28;20032;-77
2022/05/16 04:21:00;;;;;;;30.67;13.32;;;;;;;22.57;49.11;100510.81;5115045;28;20527;-77
2022/05/16 04:23:25;;;;;;;34.83;12.80;;;;;;;22.42;49.41;100512.03;5115823;28;20024;-77
2022/05/16 04:25:51;;;;;;;34.38;13.13;;;;;;;22.51;49.10;100515.19;5097770;28;20454;-76
2022/05/16 04:28:17;;;;;;;21.27;12.32;;;;;;;22.52;49.47;100518.78;5115505;28;20024;-76
2022/05/16 04:30:42;;;;;;;24.02;12.77;;;;;;;22.60;48.94;100518.38;5113799;28;20473;-76
2022/05/16 04:33:08;;;;;;;28.88;14.93;;;;;;;22.47;49.34;100511.63;5115622;28;20405;-76
2022/05/16 04:35:36;;;;;;;37.05;15.32;;;;;;;22.42;49.70;100520.38;5114908;28;20469;-77
2022/05/16 04:38:03;;;;;;;28.98;14.73;;;;;;;22.42;49.72;100517.59;5115767;28;20048;-76
2022/05/16 04:40:29;;;;;;;24.85;14.18;;;;;;;22.39;49.75;100521.19;5114840;28;20674;-76
2022/05/16 04:42:54;;;;;;;31.95;15.55;;;;;;;22.74;48.72;100519.53;5102595;28;20089;-77
2022/05/16 04:45:24;;;;;;;27.73;13.68;;;;;;;22.76;48.87;100522.75;5081219;28;20027;-77
2022/05/16 04:47:56;;;;;;;24.20;13.02;;;;;;;22.87;48.47;100524.31;5112427;28;20375;-76
2022/05/16 04:50:32;;;;;;;45.45;16.75;;;;;;;23.10;47.86;100521.06;5115547;28;20031;-77
2022/05/16 04:52:58;;;;;;;32.00;15.43;;;;;;;23.06;47.81;100527.88;5098027;28;20019;-77
2022/05/16 04:55:25;;;;;;;40.38;14.48;;;;;;;22.76;48.92;100528.31;5093507;28;20035;-76
2022/05/16 04:57:51;;;;;;;39.97;14.88;;;;;;;22.46;49.72;100526.75;5077587;28;20032;-77
2022/05/16 05:00:19;;;;;;;59.78;17.63;;;;;;;22.62;49.24;100523.56;5015908;22;20628;-76
2022/05/16 05:02:45;;;;;;;40.22;15.25;;;;;;;22.79;48.66;100519.94;4994801;28;20378;-76
2022/05/16 05:05:12;;;;;;;42.92;14.55;;;;;;;22.73;49.09;100517.94;4995094;28;20117;-77
2022/05/16 05:07:38;;;;;;;45.42;14.77;;;;;;;22.71;49.17;100518.34;4996084;28;20195;-76
2022/05/16 05:15:36;;;;;;;43.13;15.18;;;;;;;23.00;48.36;100516.34;4998911;28;20045;-76
2022/05/16 05:18:03;;;;;;;48.88;17.30;;;;;;;22.90;48.95;100528.31;4995370;28;20022;-76
2022/05/16 05:20:29;;;;;;;43.63;14.75;;;;;;;22.84;49.29;100532.66;4993818;28;20089;-76
2022/05/16 05:22:55;;;;;;;42.17;16.13;;;;;;;23.07;48.78;100521.88;4985129;28;20038;-76
2022/05/16 05:25:21;;;;;;;93.47;21.42;;;;;;;22.93;48.78;100527.50;4995004;28;20026;-77
2022/05/16 05:27:51;;;;;;;47.88;14.90;;;;;;;23.04;48.95;100522.66;4994412;28;20032;-77
2022/05/16 05:30:21;;;;;;;71.88;17.70;;;;;;;23.12;48.71;100526.22;4995493;28;20493;-77
2022/05/16 05:32:47;;;;;;;41.35;13.68;;;;;;;22.97;49.27;100522.69;4994794;28;20512;-77
2022/05/16 05:35:14;;;;;;;31.17;11.43;;;;;;;23.23;48.24;100513.06;4993761;28;20026;-77
2022/05/16 05:37:40;;;;;;;43.92;12.73;;;;;;;23.26;48.22;100520.59;4994858;28;20049;-76
2022/05/16 05:40:07;;;;;;;40.08;12.18;;;;;;;23.17;48.47;100520.25;4995010;28;20070;-77
2022/05/16 05:42:34;;;;;;;29.60;11.43;;;;;;;23.07;49.16;100527.47;4999262;28;20030;-77
2022/05/16 05:45:01;;;;;;;23.27;10.63;;;;;;;23.17;48.89;100525.81;4995740;28;20038;-77
2022/05/16 05:47:27;;;;;;;26.67;10.70;;;;;;;23.18;48.63;100522.63;4994414;28;20054;-76
2022/05/16 05:49:53;;;;;;;23.42;9.98;;;;;;;23.28;48.30;100518.22;4995364;28;20092;-76
2022/05/16 05:52:19;;;;;;;18.65;9.55;;;;;;;23.30;48.45;100501.88;4994704;28;20034;-77
2022/05/16 05:54:46;;;;;;;21.23;9.50;;;;;;;23.46;47.83;100498.63;4994239;28;20034;-77
2022/05/16 05:57:13;;;;;;;15.95;8.77;;;;;;;23.30;48.31;100498.31;4995647;28;20495;-95
2022/05/16 05:59:39;;;;;;;13.65;8.30;;;;;;;23.50;47.62;100499.38;5005869;28;20128;-76
2022/05/16 06:02:07;;;;;;;15.57;7.82;;;;;;;23.53;47.81;100506.94;5012950;28;20499;-76
2022/05/16 06:04:33;;;;;;;20.60;6.97;;;;;;;23.21;48.60;100516.25;5014342;28;20044;-77
2022/05/16 06:07:00;;;;;;;11.90;6.18;;;;;;;23.16;48.70;100525.03;5001051;28;20093;-96
2022/05/16 06:09:27;;;;;;;12.95;6.40;;;;;;;23.14;49.10;100519.06;5022084;28;20037;-81
2022/05/16 06:11:53;;;;;;;13.20;6.43;;;;;;;23.11;48.76;100519.06;5018441;28;20064;-95
2022/05/16 06:14:18;;;;;;;14.45;6.70;;;;;;;23.01;49.23;100528.28;5014849;28;20472;-76
2022/05/16 06:16:44;;;;;;;17.48;7.47;;;;;;;23.12;49.11;100527.03;5013131;28;20033;-76
2022/05/16 06:19:09;;;;;;;11.80;6.40;;;;;;;23.05;49.04;100532.66;5014718;28;20030;-77
2022/05/16 06:21:36;;;;;;;7.72;5.15;;;;;;;22.95;49.21;100534.25;5023081;28;20481;-77
2022/05/16 06:24:02;;;;;;;14.15;6.90;;;;;;;22.94;49.68;100529.88;4997507;28;20113;-95
2022/05/16 06:26:28;;;;;;;8.25;4.97;;;;;;;23.08;49.26;100528.25;5013471;28;20484;-75
2022/05/16 06:28:55;;;;;;;14.43;5.93;;;;;;;23.02;49.39;100529.84;5013431;28;20026;-79
2022/05/16 06:31:20;;;;;;;8.45;5.22;;;;;;;23.25;48.70;100539.31;5012924;28;20029;-75
2022/05/16 06:33:47;;;;;;;14.88;5.88;;;;;;;23.24;48.72;100540.53;5013122;28;20087;-76
2022/05/16 06:36:13;;;;;;;9.88;5.55;;;;;;;23.31;48.48;100545.28;5013286;28;20506;-75
2022/05/16 06:38:40;;;;;;;12.45;5.38;;;;;;;23.14;48.65;100548.94;5012909;28;20093;-76
2022/05/16 06:41:06;;;;;;;8.60;5.43;;;;;;;23.30;48.20;100554.06;5012857;28;20492;-76
2022/05/16 06:43:34;;;;;;;10.07;6.60;;;;;;;23.17;48.56;100550.91;5013290;28;20475;-75
2022/05/16 06:46:01;;;;;;;12.23;6.82;;;;;;;23.31;48.41;100558.44;5013568;28;20037;-76
2022/05/16 06:48:28;;;;;;;14.45;8.02;;;;;;;23.04;49.13;100558.09;5013366;28;20021;-79
2022/05/16 06:50:54;;;;;;;17.25;6.88;;;;;;;23.28;48.46;100559.25;5012822;28;20029;-79
2022/05/16 06:53:24;;;;;;;18.13;7.03;;;;;;;23.37;48.38;100565.19;4995045;28;20026;-80
2022/05/16 06:55:50;;;;;;;12.43;6.72;;;;;;;23.51;47.72;100567.91;5012388;28;20387;-79
2022/05/16 06:58:16;;;;;;;10.30;7.68;;;;;;;23.50;47.88;100578.28;5014591;28;20038;-80
2022/05/16 07:00:42;;;;;;;12.90;7.70;;;;;;;23.18;49.20;100577.56;5012532;28;20038;-79
2022/05/16 07:03:09;;;;;;;13.55;8.30;;;;;;;23.13;49.23;100581.59;5013039;28;20041;-77
2022/05/16 07:05:35;;;;;;;12.10;8.55;;;;;;;23.25;49.15;100583.13;5015626;28;20042;-78
2022/05/16 07:08:01;;;;;;;12.75;8.90;;;;;;;23.20;49.13;100570.41;5014090;28;20442;-78
2022/05/16 07:10:28;;;;;;;15.55;9.52;;;;;;;23.42;48.49;100576.69;4996907;28;20113;-79
2022/05/16 07:12:54;;;;;;;19.10;11.00;;;;;;;23.39;48.84;100582.28;5021743;28;20026;-78
2022/05/16 07:15:20;;;;;;;14.70;10.55;;;;;;;23.42;49.18;100584.25;5016315;28;20385;-78
2022/05/16 07:17:46;;;;;;;14.63;11.65;;;;;;;23.29;49.41;100588.72;5017261;28;20109;-78
2022/05/16 07:20:13;;;;;;;31.63;17.90;;;;;;;23.18;49.92;100583.94;5013883;28;20037;-80
2022/05/16 07:22:45;;;;;;;14.93;10.50;;;;;;;23.25;50.28;100580.34;4996432;28;20034;-95
2022/05/16 07:25:12;;;;;;;17.63;11.40;;;;;;;23.35;49.71;100579.53;5012364;28;20076;-95
2022/05/16 07:30:24;;;;;;;17.13;11.30;;;;;;;23.57;49.54;100577.41;5009303;28;20085;-77
2022/05/16 07:32:51;;;;;;;19.40;11.95;;;;;;;23.66;49.71;100586.19;5013536;28;20030;-77
2022/05/16 07:35:19;;;;;;;20.13;14.00;;;;;;;23.56;49.61;100581.41;5014706;28;20026;-77
2022/05/16 07:37:46;;;;;;;15.32;11.32;;;;;;;23.49;49.92;100582.22;4995205;28;20050;-77
2022/05/16 07:40:13;;;;;;;15.90;11.75;;;;;;;23.60;49.65;100587.81;5013060;28;20052;-78
2022/05/16 07:42:40;;;;;;;14.75;11.50;;;;;;;23.52;50.12;100587.03;5012377;28;20022;-82
2022/05/16 07:45:07;;;;;;;24.40;11.77;;;;;;;23.55;50.41;100585.41;5013109;28;20494;-88
2022/05/16 07:47:34;;;;;;;15.68;11.18;;;;;;;23.63;50.18;100587.00;5016004;28;20030;-77
2022/05/16 07:50:00;;;;;;;17.75;11.32;;;;;;;23.74;49.93;100584.97;5015586;28;20583;-77
2022/05/16 07:52:27;;;;;;;18.75;14.13;;;;;;;23.98;49.68;100596.38;5015971;28;20391;-78
2022/05/16 07:54:53;;;;;;;17.52;12.52;;;;;;;24.05;49.28;100599.13;5015986;28;20022;-77
2022/05/16 07:57:19;;;;;;;19.95;12.77;;;;;;;24.13;49.12;100591.50;5015851;28;20034;-92
2022/05/16 07:59:46;;;;;;;19.10;11.25;;;;;;;24.21;49.07;100599.41;5014925;28;20060;-77
2022/05/16 08:02:13;;;;;;;19.70;11.50;;;;;;;24.13;49.16;100614.63;5014065;28;20499;-85
2022/05/16 08:04:39;;;;;;;17.75;11.43;;;;;;;24.01;49.77;100612.28;5014476;28;20030;-77
2022/05/16 08:07:05;;;;;;;17.95;11.32;;;;;;;23.84;49.85;100616.00;5014981;28;20065;-81
2022/05/16 08:12:24;;;;;;;26.05;14.35;;;;;;;23.92;49.73;100628.69;5015600;28;20076;-76
2022/05/16 08:14:49;;;;;;;22.33;13.63;;;;;;;23.84;49.96;100621.56;5015271;28;20366;-77
2022/05/16 08:17:15;;;;;;;18.23;12.45;;;;;;;23.90;49.53;100625.53;5015439;28;20030;-77
2022/05/16 08:19:41;;;;;;;19.15;12.43;;;;;;;23.76;49.89;100624.41;4997869;28;20391;-77
2022/05/16 08:22:07;;;;;;;21.70;13.85;;;;;;;23.91;49.17;100618.75;5015502;28;20038;-77
2022/05/16 08:24:32;;;;;;;23.98;13.20;;;;;;;23.99;49.26;100620.28;5015293;28;20053;-90
2022/05/16 08:26:58;;;;;;;22.00;14.20;;;;;;;24.08;49.06;100623.41;5015348;28;20103;-77
2022/05/16 08:29:24;;;;;;;21.35;13.93;;;;;;;24.03;49.25;100621.03;5015746;28;20053;-77
2022/05/16 08:31:50;;;;;;;21.85;14.15;;;;;;;23.98;49.36;100618.72;5015279;28;20445;-77
2022/05/16 08:34:17;;;;;;;19.83;13.05;;;;;;;24.02;49.48;100628.63;5015374;28;20515;-77
2022/05/16 08:42:12;;;;;;;20.80;13.63;;;;;;;24.10;49.54;100646.13;5014716;28;20057;-77
2022/05/16 08:45:01;;;;;;;24.70;14.50;;;;;;;23.93;49.80;100655.41;5014978;28;20051;-77
2022/05/16 08:47:50;;;;;;;19.17;12.38;;;;;;;24.09;49.67;100644.53;5013329;28;20042;-77
2022/05/16 08:50:25;;;;;;;24.90;13.20;;;;;;;24.07;49.56;100644.16;5014894;28;20113;-77
2022/05/16 08:53:02;;;;;;;22.95;14.27;;;;;;;24.11;49.39;100650.53;5014680;28;20065;-92
2022/05/16 08:55:41;;;;;;;26.52;15.38;;;;;;;24.21;49.55;100644.09;5014806;28;20033;-77
2022/05/16 08:58:34;;;;;;;26.15;13.70;;;;;;;24.27;49.47;100641.66;5014591;28;20029;-77
2022/05/16 09:01:11;;;;;;;18.65;12.82;;;;;;;24.27;49.63;100642.44;5008468;28;20046;-77
2022/05/16 09:03:36;;;;;;;21.08;12.88;;;;;;;24.29;49.53;100651.22;5014744;28;20026;-77
2022/05/16 09:06:27;;;;;;;21.63;13.50;;;;;;;24.35;49.22;100657.97;4996828;28;20029;-93
2022/05/16 09:09:07;;;;;;;18.90;11.25;;;;;;;24.49;49.51;100664.69;5014638;28;20026;-77
2022/05/16 09:11:38;;;;;;;19.23;12.85;;;;;;;24.60;48.94;100657.78;5014554;28;20489;-81
2022/05/16 09:14:08;;;;;;;21.88;10.65;;;;;;;24.59;49.26;100666.59;5014188;28;20029;-83
2022/05/16 09:16:48;;;;;;;22.48;11.35;;;;;;;24.62;48.99;100674.13;5014282;28;20029;-76
2022/05/16 09:20:00;;;;;;;19.08;10.52;;;;;;;24.56;49.37;100653.44;5014465;28;20029;-76
2022/05/16 09:22:38;;;;;;;20.33;11.68;;;;;;;24.67;48.77;100679.31;5014565;28;20032;-77
2022/05/16 09:25:13;;;;;;;18.85;11.52;;;;;;;24.74;48.94;100676.47;4996687;28;20431;-77
2022/05/16 09:30:29;;;;;;;21.20;11.88;;;;;;;24.89;48.66;100691.91;5014348;28;20037;-76
2022/05/16 09:33:09;;;;;;;17.58;11.82;;;;;;;25.02;48.47;100691.41;5014324;28;20034;-77
2022/05/16 09:36:10;;;;;;;23.90;12.00;;;;;;;25.14;48.57;100694.50;5014433;28;20026;-77
2022/05/16 09:38:36;;;;;;;17.20;9.63;;;;;;;25.08;48.98;100700.94;4996414;28;20092;-77
2022/05/16 09:41:01;;;;;;;18.67;11.00;;;;;;;25.28;48.44;100695.56;5013904;28;20025;-77
2022/05/16 09:43:32;;;;;;;16.98;10.05;;;;;;;25.40;48.00;100695.84;5013899;28;20110;-77
2022/05/16 09:46:24;;;;;;;17.98;10.63;;;;;;;25.45;48.54;100700.19;5013829;28;20109;-77
2022/05/16 09:49:04;;;;;;;16.95;10.43;;;;;;;25.43;48.84;100699.81;4999788;28;20125;-77
2022/05/16 09:51:37;;;;;;;24.42;10.85;;;;;;;25.66;48.70;100702.75;5013634;28;20033;-77
2022/05/16 09:54:28;;;;;;;14.40;9.30;;;;;;;25.64;49.22;100709.97;5014150;28;20037;-77
2022/05/16 09:57:08;;;;;;;18.52;9.65;;;;;;;25.73;49.38;100705.50;5013550;28;20029;-78
2022/05/16 09:59:42;;;;;;;14.95;9.23;;;;;;;26.00;49.42;100711.19;5013637;28;20056;-78
2022/05/16 10:02:27;;;;;;;16.88;8.38;;;;;;;26.15;48.81;100713.81;4996091;28;20480;-77
2022/05/16 10:04:56;;;;;;;13.73;8.38;;;;;;;26.14;49.34;100709.38;5013591;28;20022;-77
2022/05/16 10:07:44;;;;;;;15.73;8.63;;;;;;;26.28;48.69;100706.41;5013676;28;20495;-77
2022/05/16 10:10:19;;;;;;;15.43;7.43;;;;;;;26.56;48.81;100694.03;5013871;28;20030;-93
2022/05/16 10:12:45;;;;;;;21.00;9.75;;;;;;;26.75;48.49;100710.16;5013506;28;20099;-81
2022/05/16 10:15:12;;;;;;;27.38;14.02;;;;;;;26.98;48.08;100709.38;5013442;28;20029;-78
2022/05/16 10:17:42;;;;;;;51.35;29.33;;;;;;;27.19;47.64;100710.22;5013224;28;20064;-77
2022/05/16 10:20:14;;;;;;;35.67;16.90;;;;;;;27.28;47.28;100702.06;5013140;28;20076;-77
2022/05/16 10:22:40;;;;;;;21.92;9.68;;;;;;;27.36;47.51;100709.16;5013264;28;20029;-77
2022/05/16 10:25:11;;;;;;;13.13;7.07;;;;;;;27.56;46.76;100695.91;5012991;28;20380;-77
2022/05/16 10:27:38;;;;;;;16.60;7.78;;;;;;;27.81;46.14;100701.09;5013173;28;20133;-77
2022/05/16 10:30:12;;;;;;;11.00;6.25;;;;;;;27.95;45.50;100697.16;5013170;28;20365;-78
2022/05/16 10:35:33;;;;;;;12.73;6.20;;;;;;;28.30;44.81;100700.47;5013606;28;20056;-77
2022/05/16 10:38:06;;;;;;;28.42;9.52;;;;;;;28.02;45.23;100697.00;5012973;28;20075;-77
2022/05/16 10:40:37;;;;;;;21.88;8.93;;;;;;;28.28;45.29;100700.09;4995542;28;20383;-92
2022/05/16 10:43:34;;;;;;;12.55;5.65;;;;;;;28.45;44.81;100694.06;5013388;28;20037;-92
2022/05/16 10:46:16;;;;;;;18.58;6.00;;;;;;;28.35;43.78;100703.56;4969656;28;20451;-93
2022/05/16 10:48:58;;;;;;;20.27;8.05;;;;;;;28.30;43.83;100697.66;5012973;28;20018;-77
2022/05/16 10:51:57;;;;;;;19.13;7.13;;;;;;;27.93;43.59;100708.03;5013124;28;20037;-77
2022/05/16 10:54:26;;;;;;;18.10;7.57;;;;;;;28.06;43.14;100706.16;5013059;28;20033;-77
2022/05/16 10:57:27;;;;;;;13.18;6.05;;;;;;;27.91;41.96;100711.28;4995571;28;20041;-77
2022/05/16 10:59:59;;;;;;;18.60;6.82;;;;;;;27.65;42.13;100714.97;5012927;28;20084;-77
2022/05/16 11:02:46;;;;;;;20.90;6.65;;;;;;;27.35;42.15;100719.53;5013089;28;20057;-77
2022/05/16 11:05:11;;;;;;;15.65;6.82;;;;;;;27.42;42.67;100720.63;5012902;28;20022;-92
2022/05/16 11:07:50;;;;;;;30.05;7.75;;;;;;;27.39;42.85;100725.09;5012790;28;20030;-77
2022/05/16 11:10:25;;;;;;;16.38;8.07;;;;;;;27.34;42.61;100728.41;5012888;28;20025;-78
2022/05/16 11:13:35;;;;;;;19.48;7.78;;;;;;;27.48;42.16;100730.16;5012631;28;20025;-77
2022/05/16 11:16:10;;;;;;;16.17;7.15;;;;;;;27.24;42.40;100729.38;4933188;29;20027;-77
2022/05/16 11:18:45;;;;;;;22.05;8.57;;;;;;;27.15;42.37;100729.94;5003741;28;20120;-77
2022/05/16 11:21:28;;;;;;;22.40;8.57;;;;;;;27.27;42.60;100725.72;5015676;28;20567;-77
2022/05/16 11:24:05;;;;;;;22.42;7.53;;;;;;;27.51;43.21;100727.28;5016887;28;20057;-92
2022/05/16 11:27:02;;;;;;;16.67;5.65;;;;;;;27.99;43.11;100736.41;5016654;28;20478;-78
2022/05/16 11:29:51;;;;;;;20.27;8.05;;;;;;;28.20;43.31;100728.34;5016419;28;20384;-77
2022/05/16 11:32:22;;;;;;;15.18;6.07;;;;;;;28.46;43.13;100740.63;5016420;28;20088;-77
2022/05/16 11:34:54;;;;;;;19.20;6.38;;;;;;;28.20;43.68;100728.34;5016415;28;20040;-77
2022/05/16 11:37:38;;;;;;;17.63;7.18;;;;;;;28.40;42.79;100736.75;5016135;28;20061;-77
2022/05/16 11:40:18;;;;;;;14.73;5.57;;;;;;;28.86;42.13;100728.44;5016305;28;20076;-77
2022/05/16 11:42:49;;;;;;;17.73;6.78;;;;;;;28.78;41.99;100727.84;4998551;28;20029;-93
2022/05/16 11:45:31;;;;;;;19.00;7.38;;;;;;;28.79;41.91;100715.34;5015944;28;20680;-77
2022/05/16 11:48:27;;;;;;;27.25;9.80;;;;;;;29.01;40.77;100726.91;4998512;28;20029;-77
2022/05/16 11:51:14;;;;;;;26.65;8.25;;;;;;;28.68;41.24;100734.50;5016138;28;20018;-77
2022/05/16 11:53:50;;;;;;;23.45;8.70;;;;;;;28.66;41.14;100734.97;5015799;28;20030;-93
2022/05/16 12:02:43;;;;;;;23.55;7.10;;;;;;;28.71;40.64;100740.03;5015887;28;20130;-77
2022/05/16 12:05:11;;;;;;;18.88;6.38;;;;;;;28.89;40.73;100736.81;5011773;28;20033;-77